Time;durP1;ratioP1;P1;durP2;ratioP2;P2;SDS_P1;SDS_P2;PMS_P1;PMS_P2;Temp;Humidity;BMP_temperature;BMP_pressure;BME280_temperature;BME280_humidity;BME280_pressure;Samples;Min_cycle;Max_cycle;Signal;HPM_P1;HPM_P2
2021/05/17 00:00:56;;;;;;;1.20;1.10;;;8.20;99.90;;;9.59;100.00;98957.50;5018641;28;39071;-60
2021/05/17 00:04:11;;;;;;;1.30;1.07;;;8.20;99.90;;;9.45;100.00;98958.34;5010591;28;41152;-59
2021/05/17 00:07:24;;;;;;;3.70;1.50;;;8.20;99.90;;;9.44;100.00;98949.50;5009073;28;41040;-60
2021/05/17 00:10:36;;;;;;;2.87;1.20;;;8.10;99.90;;;9.47;100.00;98948.31;5008436;28;46520;-59
2021/05/17 00:13:47;;;;;;;3.37;1.30;;;8.10;99.90;;;9.52;100.00;98945.91;5008552;28;50009;-60
2021/05/17 00:17:00;;;;;;;1.60;1.17;;;8.00;99.90;;;9.49;100.00;98946.28;5005770;28;46988;-60
2021/05/17 00:20:13;;;;;;;4.03;1.30;;;8.00;99.90;;;9.07;100.00;98954.88;5006709;28;48184;-59
2021/05/17 00:23:24;;;;;;;1.87;1.50;;;8.00;99.90;;;9.16;100.00;98956.44;5027246;28;47870;-59
2021/05/17 00:26:47;;;;;;;1.57;1.27;;;7.90;99.90;;;9.13;100.00;98960.31;5027019;28;47236;-59
2021/05/17 00:33:28;;;;;;;3.47;1.57;;;7.80;99.90;;;9.04;100.00;98964.06;5027206;28;45009;-60
2021/05/17 00:37:06;;;;;;;2.00;1.37;;;7.80;99.90;;;8.94;100.00;98979.50;5026798;28;48082;-59
2021/05/17 00:40:18;;;;;;;2.60;1.50;;;7.70;99.90;;;8.93;100.00;98976.00;5044495;28;47133;-60
2021/05/17 00:43:36;;;;;;;2.87;1.40;;;7.70;99.90;;;8.85;100.00;98967.22;5031003;28;43917;-60
2021/05/17 00:46:49;;;;;;;1.20;1.10;;;7.70;99.90;;;8.86;100.00;98963.56;5024698;28;44125;-60
2021/05/17 00:50:03;;;;;;;1.77;1.10;;;7.60;99.90;;;8.96;100.00;98962.31;5015544;28;40091;-60
2021/05/17 00:53:15;;;;;;;4.27;1.57;;;7.60;99.90;;;8.90;100.00;98967.53;5029962;28;50588;-60
2021/05/17 00:56:27;;;;;;;1.97;1.40;;;7.60;99.90;;;8.91;100.00;98969.16;5023439;28;50089;-58
2021/05/17 00:59:39;;;;;;;3.87;2.00;;;7.60;99.90;;;8.76;100.00;98966.47;5012738;28;40191;-60
2021/05/17 01:02:50;;;;;;;1.80;1.70;;;7.50;99.90;;;8.67;100.00;98962.19;5016353;28;32140;-58
2021/05/17 01:06:14;;;;;;;2.70;1.63;;;7.50;99.90;;;8.71;100.00;98974.16;5028455;28;42105;-59
2021/05/17 01:09:26;;;;;;;2.00;1.50;;;7.50;99.90;;;8.75;100.00;98970.16;5037347;28;32473;-59
2021/05/17 01:12:52;;;;;;;2.67;1.80;;;7.40;99.90;;;8.73;100.00;98974.81;5036364;28;42017;-59
2021/05/17 01:16:05;;;;;;;1.50;1.40;;;7.40;99.90;;;8.59;100.00;98972.94;5033055;28;40804;-59
2021/05/17 01:19:19;;;;;;;2.87;1.47;;;7.40;99.90;;;8.57;100.00;98967.78;5026024;28;40773;-59
2021/05/17 01:26:09;;;;;;;3.67;1.50;;;7.40;99.90;;;8.49;100.00;98975.84;5010345;28;39245;-59
2021/05/17 01:29:24;;;;;;;3.57;1.53;;;7.40;99.90;;;8.52;100.00;98983.47;5011998;28;40761;-60
2021/05/17 01:35:59;;;;;;;1.30;1.20;;;7.30;99.90;;;8.55;100.00;98983.09;5012515;28;39704;-60
2021/05/17 01:39:19;;;;;;;5.90;1.63;;;7.40;99.90;;;8.67;100.00;98985.34;5018022;28;42651;-59
2021/05/17 01:42:45;;;;;;;2.13;1.77;;;7.40;99.90;;;8.80;100.00;98982.94;5015183;28;39633;-60
2021/05/17 01:46:06;;;;;;;2.10;1.60;;;7.40;99.90;;;8.91;100.00;98978.00;5015654;28;38170;-59
2021/05/17 01:49:44;;;;;;;1.97;1.40;;;7.50;99.90;;;9.04;100.00;98981.91;5019014;28;33219;-60
2021/05/17 01:52:57;;;;;;;1.70;1.33;;;7.60;99.90;;;9.19;100.00;98986.28;4971512;28;40187;-60
2021/05/17 01:56:24;;;;;;;1.60;1.50;;;7.70;99.90;;;9.35;100.00;98979.97;5015496;28;43773;-60
2021/05/17 02:03:04;;;;;;;1.53;1.20;;;8.00;99.90;;;9.21;100.00;98984.25;4992221;28;35969;-59
2021/05/17 02:05:31;;;;;;;1.80;1.10;;;8.10;99.90;;;9.21;100.00;98981.59;5033370;28;39415;-58
2021/05/17 02:08:01;;;;;;;2.93;1.20;;;8.20;99.90;;;9.36;100.00;98985.13;5036048;28;35620;-59
2021/05/17 02:10:27;;;;;;;1.20;1.10;;;8.20;99.90;;;9.23;100.00;98992.09;5038765;28;35027;-60
2021/05/17 02:12:57;;;;;;;1.20;1.10;;;8.30;99.90;;;9.16;100.00;98997.31;5035215;28;40460;-60
2021/05/17 02:15:26;;;;;;;1.37;1.03;;;8.40;99.90;;;9.23;100.00;99000.94;5033100;28;40117;-60
2021/05/17 02:21:16;;;;;;;0.97;0.87;;;8.50;99.90;;;9.40;100.00;99001.59;5027770;28;31296;-59
2021/05/17 02:23:44;;;;;;;1.20;1.00;;;8.50;99.90;;;9.34;100.00;99007.66;5038118;28;36875;-59
2021/05/17 02:26:11;;;;;;;1.50;1.40;;;8.60;99.90;;;9.36;100.00;99008.31;5033546;28;30094;-58
2021/05/17 02:28:40;;;;;;;3.10;1.20;;;8.60;99.90;;;9.36;100.00;99019.81;5017880;28;38207;-59
2021/05/17 02:31:09;;;;;;;4.30;1.30;;;8.70;99.90;;;9.58;100.00;99015.44;5017491;28;35783;-59
2021/05/17 02:33:38;;;;;;;1.63;1.20;;;8.70;99.90;;;9.52;100.00;99018.81;5015577;28;39277;-60
2021/05/17 02:36:07;;;;;;;2.63;1.30;;;8.80;99.90;;;9.62;100.00;99023.91;5035184;28;34320;-60
2021/05/17 02:38:35;;;;;;;1.60;1.50;;;8.80;99.90;;;9.68;100.00;99023.16;5037964;28;33992;-60
2021/05/17 02:41:05;;;;;;;3.43;1.87;;;8.90;99.90;;;9.69;100.00;99030.16;5035523;28;41896;-59
2021/05/17 02:43:33;;;;;;;4.23;1.90;;;8.90;99.90;;;9.74;100.00;99035.81;5035960;28;35993;-60
2021/05/17 02:46:10;;;;;;;2.17;1.53;;;8.90;99.90;;;9.76;100.00;99036.47;5037747;28;39599;-60
2021/05/17 02:48:49;;;;;;;3.90;1.60;;;8.90;99.90;;;9.93;100.00;99032.56;5033441;28;35814;-60
2021/05/17 02:51:16;;;;;;;2.87;1.47;;;8.90;99.90;;;9.91;100.00;99031.94;5038252;28;39086;-59
2021/05/17 02:54:10;;;;;;;1.93;1.37;;;9.00;99.90;;;10.01;100.00;99037.81;5036914;28;35639;-59
2021/05/17 02:57:04;;;;;;;2.27;1.60;;;9.00;99.90;;;10.09;100.00;99036.91;5014720;28;36793;-61
2021/05/17 03:00:11;;;;;;;3.90;1.60;;;9.00;99.90;;;9.94;100.00;99041.44;5021546;28;39100;-60
2021/05/17 03:03:05;;;;;;;2.50;1.50;;;9.10;99.90;;;10.03;100.00;99041.13;5035722;28;31818;-60
2021/05/17 03:05:43;;;;;;;2.43;1.63;;;9.10;99.90;;;9.95;100.00;99038.56;5039260;28;31166;-60
2021/05/17 03:08:19;;;;;;;1.60;1.00;;;9.20;99.90;;;9.93;100.00;99058.47;5037635;28;36427;-60
2021/05/17 03:10:47;;;;;;;3.17;1.50;;;9.20;99.90;;;9.93;100.00;99045.09;5036808;28;37362;-60
2021/05/17 03:13:17;;;;;;;1.80;1.33;;;9.20;99.90;;;9.96;100.00;99044.75;5038673;28;33556;-61
2021/05/17 03:16:01;;;;;;;2.67;1.30;;;9.20;99.90;;;10.03;100.00;99053.66;5037215;28;31265;-61
2021/05/17 03:18:31;;;;;;;2.33;1.57;;;9.20;99.90;;;10.15;100.00;99054.88;5037736;28;33416;-61
2021/05/17 03:20:58;;;;;;;2.37;1.23;;;9.20;99.90;;;10.29;100.00;99046.03;5040392;28;33168;-61
2021/05/17 03:23:26;;;;;;;1.70;1.60;;;9.20;99.90;;;10.39;100.00;99041.22;5024771;28;41360;-61
2021/05/17 03:25:53;;;;;;;2.07;1.47;;;9.30;99.90;;;10.45;100.00;99034.31;5018041;28;32628;-61
2021/05/17 03:28:20;;;;;;;3.27;1.70;;;9.30;99.90;;;10.53;100.00;99049.41;5016824;28;37740;-61
2021/05/17 03:30:46;;;;;;;4.47;1.80;;;9.30;99.90;;;10.47;100.00;99042.16;5016909;28;42502;-60
2021/05/17 03:33:12;;;;;;;2.23;1.70;;;9.30;99.90;;;10.48;100.00;99041.97;5019172;28;35514;-60
2021/05/17 03:35:39;;;;;;;3.10;1.90;;;9.40;99.90;;;10.49;100.00;99056.16;5017294;28;38136;-61
2021/05/17 03:38:06;;;;;;;1.63;1.53;;;9.40;99.90;;;10.47;100.00;99055.53;5015674;28;34525;-60
2021/05/17 03:40:33;;;;;;;3.90;2.17;;;9.40;99.90;;;10.43;100.00;99058.56;5014142;28;48336;-61
2021/05/17 03:43:08;;;;;;;3.83;1.83;;;9.40;99.90;;;10.45;100.00;99055.72;5015108;28;34911;-60
2021/05/17 03:45:36;;;;;;;3.80;1.60;;;9.40;99.90;;;10.54;100.00;99064.44;5014902;28;42555;-61
2021/05/17 03:48:03;;;;;;;2.73;1.60;;;9.40;99.90;;;10.60;100.00;99056.50;5020149;28;35849;-60
2021/05/17 03:50:29;;;;;;;2.17;1.20;;;9.50;99.90;;;10.66;100.00;99061.09;5017269;28;34983;-60
2021/05/17 03:52:56;;;;;;;2.00;1.37;;;9.40;99.90;;;10.70;100.00;99061.56;5021411;28;26516;-60
2021/05/17 03:55:23;;;;;;;3.47;1.80;;;9.50;99.90;;;10.78;100.00;99064.09;5019512;28;33977;-61
2021/05/17 03:57:50;;;;;;;3.53;1.80;;;9.50;99.90;;;10.78;100.00;99064.94;5019125;28;29290;-61
2021/05/17 04:00:17;;;;;;;1.70;1.60;;;9.50;99.90;;;10.84;100.00;99071.38;5019914;28;33776;-61
2021/05/17 04:02:44;;;;;;;3.57;1.60;;;9.60;99.90;;;10.78;100.00;99066.78;5020405;28;35044;-61
2021/05/17 04:05:28;;;;;;;2.50;1.60;;;9.60;99.90;;;10.86;100.00;99063.19;5022240;28;29347;-60
2021/05/17 04:08:10;;;;;;;15.73;2.80;;;9.60;99.90;;;10.91;100.00;99079.47;5022483;28;31328;-60
2021/05/17 04:13:24;;;;;;;3.57;1.50;;;9.70;99.90;;;10.88;100.00;99075.31;5020834;28;35138;-59
2021/05/17 04:15:53;;;;;;;2.40;1.40;;;9.70;99.90;;;10.94;100.00;99071.06;5018036;28;30847;-58
2021/05/17 04:18:20;;;;;;;2.70;1.63;;;9.70;99.90;;;10.97;100.00;99063.50;5037620;28;33680;-59
2021/05/17 04:20:48;;;;;;;5.37;2.00;;;9.70;99.90;;;11.00;100.00;99064.97;5041514;28;30310;-59
2021/05/17 04:23:15;;;;;;;3.57;1.93;;;9.80;99.90;;;11.02;100.00;99069.09;5043050;28;25109;-59
2021/05/17 04:25:42;;;;;;;3.20;1.63;;;9.80;99.90;;;11.14;100.00;99077.44;5055776;28;26836;-59
2021/05/17 04:28:12;;;;;;;2.17;1.80;;;9.90;99.90;;;11.11;100.00;99075.19;5038482;28;29877;-60
2021/05/17 04:30:39;;;;;;;4.30;1.67;;;9.90;99.90;;;11.16;100.00;99068.22;5041618;28;27214;-60
2021/05/17 04:33:08;;;;;;;2.80;1.83;;;9.90;99.90;;;11.21;100.00;99064.97;5044763;28;23841;-58
2021/05/17 04:35:34;;;;;;;3.17;1.80;;;10.00;99.90;;;11.31;100.00;99064.63;5043545;28;23996;-60
2021/05/17 04:38:00;;;;;;;3.73;2.00;;;10.00;99.90;;;11.37;100.00;99069.25;5043207;28;20733;-60
2021/05/17 04:40:27;;;;;;;4.77;2.50;;;10.10;99.90;;;11.36;100.00;99071.09;5041582;28;21954;-58
2021/05/17 04:42:54;;;;;;;5.73;3.73;;;10.20;99.90;;;11.34;100.00;99078.47;5041347;28;27042;-60
2021/05/17 04:45:23;;;;;;;6.03;4.67;;;10.20;99.90;;;11.34;100.00;99083.84;5042177;28;20244;-59
2021/05/17 04:47:50;;;;;;;4.33;3.77;;;10.20;99.90;;;11.41;100.00;99076.69;5034732;28;22457;-59
2021/05/17 04:50:16;;;;;;;5.83;4.20;;;10.20;99.90;;;11.41;100.00;99076.69;5043714;28;20238;-60
2021/05/17 04:52:43;;;;;;;4.80;3.77;;;10.20;99.90;;;11.61;100.00;99073.34;5039893;28;20252;-59
2021/05/17 04:55:11;;;;;;;3.67;3.30;;;10.10;99.90;;;11.82;100.00;99065.28;5045469;28;20221;-59
2021/05/17 04:57:37;;;;;;;5.37;2.77;;;10.10;99.90;;;12.24;100.00;99073.16;5044428;28;20560;-60
2021/05/17 05:00:08;;;;;;;2.60;2.37;;;10.20;99.90;;;12.61;100.00;99072.94;5043646;28;20516;-59
2021/05/17 05:02:35;;;;;;;1.83;1.70;;;10.30;99.90;;;12.57;100.00;99081.38;5042581;28;20520;-60
2021/05/17 05:05:01;;;;;;;2.60;1.73;;;10.40;99.90;;;12.53;100.00;99088.19;5039135;28;20221;-59
2021/05/17 05:07:28;;;;;;;3.23;2.20;;;10.60;99.90;;;12.49;100.00;99088.75;5043048;28;20543;-59
2021/05/17 05:09:54;;;;;;;3.33;2.10;;;10.70;99.90;;;12.26;100.00;99086.38;5040809;28;20512;-58
2021/05/17 05:12:21;;;;;;;2.70;1.80;;;10.80;99.90;;;12.40;100.00;99093.47;5040101;28;20358;-59
2021/05/17 05:14:47;;;;;;;4.80;2.07;;;10.90;99.90;;;12.40;100.00;99088.09;5034164;28;22273;-58
2021/05/17 05:17:17;;;;;;;2.00;1.90;;;10.90;99.90;;;12.40;100.00;99088.09;5034847;28;21070;-59
2021/05/17 05:19:43;;;;;;;2.70;2.00;;;11.00;99.90;;;12.54;100.00;99091.69;5042987;28;22862;-60
2021/05/17 05:22:10;;;;;;;3.57;1.83;;;11.10;99.90;;;12.46;100.00;99090.00;5041365;28;22890;-59
2021/05/17 05:24:37;;;;;;;2.63;1.50;;;11.20;99.90;;;12.54;100.00;99095.19;5040618;28;23944;-58
2021/05/17 05:27:11;;;;;;;2.40;1.73;;;11.20;99.90;;;12.56;100.00;99098.50;5029026;28;22941;-59
2021/05/17 05:29:48;;;;;;;2.10;1.70;;;11.30;99.90;;;12.58;100.00;99096.47;5039966;28;29841;-60
2021/05/17 05:32:24;;;;;;;2.70;1.60;;;11.40;99.90;;;12.52;100.00;99099.09;5036474;28;23149;-58
2021/05/17 05:34:51;;;;;;;3.07;2.07;;;11.40;99.90;;;12.81;100.00;99092.63;5036298;28;22240;-59
2021/05/17 05:37:17;;;;;;;2.83;1.60;;;11.50;99.90;;;13.30;100.00;99101.25;5041638;28;21186;-59
2021/05/17 05:39:44;;;;;;;2.00;1.60;;;11.60;99.90;;;13.69;100.00;99096.13;5041833;28;20217;-59
2021/05/17 05:42:11;;;;;;;2.97;1.90;;;11.70;99.90;;;13.40;100.00;99092.78;5041320;28;20617;-59
2021/05/17 05:44:42;;;;;;;3.03;1.70;;;11.90;99.90;;;13.72;100.00;99093.84;5044347;28;20326;-59
2021/05/17 05:47:14;;;;;;;3.40;1.40;;;12.00;99.90;;;13.74;100.00;99096.31;5044046;28;20319;-57
2021/05/17 05:49:42;;;;;;;3.37;1.40;;;12.10;99.90;;;13.74;100.00;99089.06;5043793;28;20248;-58
2021/05/17 05:52:08;;;;;;;1.93;1.37;;;12.20;99.90;;;13.84;100.00;99081.44;5042582;28;20735;-58
2021/05/17 05:54:35;;;;;;;2.10;1.27;;;12.30;99.90;;;14.24;100.00;99086.72;5042511;28;20546;-57
2021/05/17 05:57:03;;;;;;;2.50;1.23;;;12.40;99.90;;;14.41;100.00;99085.25;5032897;28;20570;-59
2021/05/17 05:59:29;;;;;;;2.10;1.27;;;12.60;99.90;;;14.96;100.00;99082.97;5039422;28;20611;-58
2021/05/17 06:01:55;;;;;;;3.27;1.40;;;12.80;99.90;;;14.92;100.00;99081.75;5040973;28;20339;-58
2021/05/17 06:04:22;;;;;;;2.33;0.90;;;13.00;99.90;;;14.93;100.00;99078.00;5042667;28;21174;-57
2021/05/17 06:09:30;;;;;;;3.90;1.20;;;13.40;99.90;;;14.94;100.00;99076.97;5041794;28;21737;-59
2021/05/17 06:11:58;;;;;;;2.37;1.30;;;13.50;99.90;;;14.95;100.00;99070.53;5042639;28;20249;-59
2021/05/17 06:15:12;;;;;;;1.40;0.93;;;13.60;99.90;;;15.61;100.00;99070.09;5043078;28;20245;-58
2021/05/17 06:18:45;;;;;;;1.70;0.80;;;13.80;99.90;;;15.36;100.00;99070.88;5044156;28;20610;-59
2021/05/17 06:21:56;;;;;;;1.37;0.80;;;14.10;99.90;;;14.94;100.00;99068.91;5035671;28;20477;-57
2021/05/17 06:25:09;;;;;;;0.83;0.80;;;14.40;99.90;;;15.00;100.00;99087.69;5047449;28;20563;-59
2021/05/17 06:28:32;;;;;;;1.40;0.60;;;14.50;99.90;;;15.32;100.00;99077.78;5031461;28;20506;-59
2021/05/17 06:32:07;;;;;;;2.37;0.80;;;14.60;99.90;;;15.39;100.00;99075.00;5043911;28;20839;-59
2021/05/17 06:49:59;;;;;;;0.95;0.80;;;15.30;99.90;;;15.48;100.00;99099.81;5041109;28;20593;-59
2021/05/17 06:56:53;;;;;;;2.75;0.85;;;15.40;99.90;;;14.67;100.00;99106.72;5043409;28;20419;-60
2021/05/17 07:00:07;;;;;;;0.82;0.45;;;15.30;99.90;;;14.77;100.00;99110.81;5046792;28;20402;-59
2021/05/17 07:03:22;;;;;;;3.33;0.70;;;15.10;99.90;;;15.00;100.00;99100.34;5039131;28;20228;-59
2021/05/17 07:06:34;;;;;;;0.73;0.50;;;15.00;99.90;;;15.31;100.00;99099.56;5045157;28;20225;-59
2021/05/17 07:29:49;;;;;;;2.42;0.60;;;16.40;99.90;;;15.36;100.00;99102.41;4960960;28;20742;-59
2021/05/17 07:33:23;;;;;;;2.33;0.50;;;16.40;99.90;;;15.38;100.00;99109.22;5008271;28;20592;-59
2021/05/17 07:36:59;;;;;;;1.27;0.60;;;16.30;99.90;;;15.59;100.00;99123.41;5040591;28;21055;-58
2021/05/17 07:44:34;;;;;;;1.08;0.60;;;16.20;99.90;;;16.54;100.00;99116.75;4999964;28;20230;-60
2021/05/17 07:47:47;;;;;;;0.82;0.40;;;16.40;99.90;;;16.59;100.00;99124.97;5026857;28;20629;-59
2021/05/17 07:50:58;;;;;;;0.98;0.52;;;16.70;96.90;;;16.30;100.00;99121.16;5040482;28;20392;-58
2021/05/17 07:54:21;;;;;;;0.98;0.57;;;16.80;96.10;;;16.18;100.00;99122.94;5035812;28;20420;-58
2021/05/17 07:57:47;;;;;;;1.27;0.65;;;16.80;96.30;;;16.24;100.00;99129.31;5046573;28;20645;-59
2021/05/17 08:01:35;;;;;;;1.10;0.50;;;16.80;96.30;;;15.82;100.00;99133.63;5044595;28;20221;-60
2021/05/17 08:08:03;;;;;;;1.10;0.35;;;17.00;97.20;;;16.31;100.00;99130.09;5039999;28;20409;-59
2021/05/17 08:11:15;;;;;;;0.50;0.50;;;17.10;96.50;;;15.91;100.00;99126.91;5040303;28;20324;-59
2021/05/17 08:14:26;;;;;;;2.58;0.85;;;17.00;95.20;;;15.77;100.00;99132.41;5045426;28;20312;-59
2021/05/17 08:17:37;;;;;;;0.77;0.60;;;16.80;95.30;;;16.16;100.00;99120.47;5039347;28;20317;-58
2021/05/17 08:20:49;;;;;;;3.17;1.80;;;16.70;96.00;;;16.77;100.00;99124.19;5043851;28;20319;-59
2021/05/17 08:24:01;;;;;;;4.20;1.92;;;16.80;96.20;;;17.28;100.00;99126.44;5043179;28;20827;-59
2021/05/17 08:27:21;;;;;;;2.97;0.82;;;17.00;94.60;;;17.20;100.00;99130.25;5040804;28;20285;-59
2021/05/17 08:30:41;;;;;;;4.00;2.28;;;17.40;93.20;;;16.96;100.00;99136.63;5056481;27;20472;-59
2021/05/17 08:33:52;;;;;;;3.22;1.75;;;17.50;92.60;;;16.82;100.00;99141.34;5061749;27;20508;-60
2021/05/17 08:37:17;;;;;;;1.02;0.75;;;17.50;92.10;;;16.35;100.00;99142.88;5061379;28;20667;-59
2021/05/17 08:44:40;;;;;;;2.33;0.90;;;17.30;91.10;;;17.45;100.00;99140.09;5051208;27;20241;-60
2021/05/17 08:47:52;;;;;;;2.00;0.77;;;17.30;91.40;;;17.49;100.00;99144.00;5064773;28;20518;-59
2021/05/17 08:54:22;;;;;;;3.60;0.63;;;17.70;88.00;;;17.24;100.00;99136.88;5058650;28;20327;-60
2021/05/17 08:57:33;;;;;;;1.23;0.38;;;17.80;87.10;;;17.47;100.00;99144.25;5054913;28;20231;-59
2021/05/17 09:01:11;;;;;;;2.40;0.57;;;18.00;85.50;;;16.86;100.00;99156.06;5060648;27;20386;-59
2021/05/17 09:04:24;;;;;;;1.35;0.60;;;18.10;83.90;;;16.98;100.00;99153.44;4980476;28;20324;-60
2021/05/17 09:07:50;;;;;;;1.17;0.63;;;18.00;83.40;;;17.49;100.00;99149.41;5063023;28;20625;-59
2021/05/17 09:11:05;;;;;;;2.00;0.70;;;18.00;83.50;;;17.46;100.00;99158.00;5047773;28;20353;-59
2021/05/17 09:18:04;;;;;;;3.47;0.60;;;18.30;82.40;;;18.49;100.00;99157.59;5061412;28;20734;-60
2021/05/17 09:20:37;;;;;;;1.77;0.70;;;18.60;80.00;;;19.43;100.00;99144.63;5058548;28;21198;-58
2021/05/17 09:23:19;;;;;;;2.45;1.42;;;18.90;80.60;;;18.54;100.00;99152.28;5038192;28;20573;-58
2021/05/17 09:26:03;;;;;;;2.30;0.70;;;19.20;75.10;;;18.51;100.00;99144.63;5065056;28;20258;-60
2021/05/17 09:28:33;;;;;;;1.17;0.85;;;19.30;73.60;;;17.95;100.00;99144.13;5064863;28;20215;-60
2021/05/17 09:31:06;;;;;;;0.82;0.73;;;19.30;69.00;;;18.50;100.00;99148.41;5063679;28;21181;-58
2021/05/17 09:33:44;;;;;;;4.60;0.80;;;19.30;69.10;;;18.39;100.00;99147.34;5064788;28;20222;-59
2021/05/17 09:36:27;;;;;;;1.67;0.70;;;19.30;68.80;;;18.42;100.00;99143.34;5064216;28;20263;-59
2021/05/17 09:39:03;;;;;;;1.73;0.70;;;19.40;66.90;;;18.73;100.00;99140.28;5055770;27;20536;-59
2021/05/17 09:41:42;;;;;;;1.20;0.80;;;19.40;65.00;;;18.84;100.00;99136.72;5055660;28;20635;-59
2021/05/17 09:44:09;;;;;;;1.33;0.80;;;19.50;65.10;;;18.44;100.00;99146.63;5064689;28;20216;-59
2021/05/17 09:47:02;;;;;;;2.47;1.02;;;19.60;65.20;;;18.79;100.00;99146.63;5056926;27;20325;-60
2021/05/17 09:49:35;;;;;;;3.25;0.60;;;19.70;66.40;;;18.64;100.00;99149.84;5049386;28;20249;-59
2021/05/17 09:52:15;;;;;;;2.60;0.75;;;19.80;67.20;;;19.14;100.00;99144.66;5056186;27;20255;-60
2021/05/17 09:54:56;;;;;;;1.52;0.85;;;20.00;69.10;;;18.97;100.00;99149.16;5063182;27;20224;-60
2021/05/17 09:57:27;;;;;;;1.80;0.65;;;20.20;69.40;;;18.58;100.00;99153.47;5061154;28;20310;-59
2021/05/17 09:59:56;;;;;;;2.10;0.80;;;20.30;68.50;;;18.63;100.00;99149.00;5063795;28;20688;-59
2021/05/17 10:02:35;;;;;;;1.35;0.70;;;20.40;66.40;;;18.42;100.00;99151.47;5065513;28;21007;-58
2021/05/17 10:05:21;;;;;;;1.45;0.88;;;20.40;64.50;;;18.27;100.00;99158.19;5064331;28;20643;-59
2021/05/17 10:07:51;;;;;;;1.42;0.80;;;20.30;61.80;;;17.99;100.00;99149.91;5063587;28;20251;-59
2021/05/17 10:10:18;;;;;;;3.08;1.00;;;20.10;59.40;;;17.64;100.00;99154.44;5065677;28;20724;-59
2021/05/17 10:12:45;;;;;;;2.70;0.63;;;19.80;60.90;;;17.46;100.00;99164.22;5058373;28;20234;-60
2021/05/17 10:15:14;;;;;;;1.67;0.70;;;19.50;63.10;;;17.58;100.00;99156.97;5058940;28;20232;-59
2021/05/17 10:17:41;;;;;;;2.78;0.70;;;19.20;64.20;;;17.97;100.00;99151.22;5068507;28;20451;-60
2021/05/17 10:20:13;;;;;;;2.38;0.82;;;19.20;64.70;;;18.42;100.00;99151.47;5066338;28;20216;-59
2021/05/17 10:22:41;;;;;;;2.53;0.95;;;19.20;65.90;;;18.31;100.00;99156.63;5067626;28;20376;-59
2021/05/17 10:25:11;;;;;;;2.15;0.90;;;19.30;64.60;;;18.97;100.00;99141.03;5067990;28;20581;-59
2021/05/17 10:27:46;;;;;;;2.20;0.90;;;19.50;64.80;;;19.53;100.00;99144.88;5066711;28;20946;-58
2021/05/17 10:30:21;;;;;;;3.90;0.80;;;19.90;63.50;;;19.52;100.00;99138.63;5061450;28;20770;-59
2021/05/17 10:32:57;;;;;;;1.23;0.82;;;20.30;61.40;;;19.55;100.00;99140.81;5066938;28;20228;-60
2021/05/17 10:35:30;;;;;;;1.05;0.88;;;20.60;59.30;;;19.74;100.00;99138.72;5064574;28;20471;-60
2021/05/17 10:38:22;;;;;;;1.88;0.93;;;20.90;58.60;;;19.24;100.00;99130.44;5061355;28;20239;-59
2021/05/17 10:40:53;;;;;;;1.00;0.70;;;21.20;56.80;;;18.94;100.00;99136.09;5067111;28;21091;-59
2021/05/17 10:44:18;;;;;;;2.30;0.95;;;21.10;55.40;;;19.56;100.00;99133.50;5066973;28;20228;-59
2021/05/17 10:46:50;;;;;;;1.88;0.50;;;20.90;55.40;;;20.21;100.00;99125.63;5068172;28;20237;-60
2021/05/17 10:49:32;;;;;;;1.45;0.68;;;21.10;55.10;;;20.09;100.00;99125.72;5066659;28;20223;-59
2021/05/17 10:52:23;;;;;;;2.40;0.60;;;21.40;54.50;;;19.65;100.00;99124.75;5059898;28;20675;-60
2021/05/17 10:55:08;;;;;;;2.72;0.77;;;21.80;53.40;;;19.95;100.00;99118.16;5066678;28;20874;-59
2021/05/17 10:57:40;;;;;;;1.13;0.60;;;22.20;52.90;;;19.17;100.00;99122.44;5060552;28;21005;-59
2021/05/17 11:00:23;;;;;;;1.75;0.70;;;22.50;51.50;;;19.20;100.00;99123.84;5066808;28;20216;-58
2021/05/17 11:03:11;;;;;;;1.85;0.63;;;22.50;51.60;;;19.57;100.00;99133.25;5067669;28;20740;-60
2021/05/17 11:05:39;;;;;;;1.50;0.70;;;22.40;51.70;;;19.34;100.00;99130.63;5063867;28;20217;-59
2021/05/17 11:08:08;;;;;;;0.95;0.70;;;22.30;51.50;;;18.69;100.00;99133.66;5067427;27;20521;-59
2021/05/17 11:10:37;;;;;;;2.28;0.68;;;22.00;49.40;;;18.85;100.00;99132.94;5061991;27;20499;-60
2021/05/17 11:13:17;;;;;;;2.85;1.00;;;21.50;49.70;;;19.13;100.00;99129.44;5061054;28;20225;-59
2021/05/17 11:15:54;;;;;;;2.00;0.70;;;21.30;50.60;;;18.94;100.00;99130.66;5065883;28;20601;-60
2021/05/17 11:18:33;;;;;;;2.58;1.15;;;21.20;50.00;;;18.82;100.00;99119.03;5066615;28;20710;-59
2021/05/17 11:21:03;;;;;;;1.95;0.68;;;21.00;48.60;;;19.54;100.00;99117.47;5066514;28;20539;-60
2021/05/17 11:23:59;;;;;;;1.95;0.70;;;21.00;48.90;;;20.07;100.00;99121.59;5060844;28;20542;-60
2021/05/17 11:26:27;;;;;;;1.38;0.57;;;21.10;48.80;;;20.68;100.00;99119.78;5061654;28;20370;-59
2021/05/17 11:29:07;;;;;;;1.75;0.60;;;21.40;49.30;;;20.97;100.00;99110.38;5058932;28;20418;-59
2021/05/17 11:31:40;;;;;;;2.42;0.57;;;21.90;49.30;;;21.12;100.00;99112.47;5055476;27;20445;-59
2021/05/17 11:34:13;;;;;;;3.25;0.60;;;22.30;48.90;;;20.88;100.00;99127.41;5059896;27;20464;-58
2021/05/17 11:36:43;;;;;;;1.52;0.68;;;22.70;48.60;;;20.43;100.00;99123.00;5060718;28;20960;-60
2021/05/17 11:39:20;;;;;;;1.42;0.70;;;22.90;48.10;;;20.35;100.00;99129.69;5045490;28;20653;-59
2021/05/17 11:41:50;;;;;;;1.92;0.50;;;23.00;46.70;;;21.27;100.00;99118.06;5055226;28;21111;-59
2021/05/17 11:44:22;;;;;;;1.17;0.50;;;23.30;46.80;;;21.22;100.00;99117.22;5060501;27;20502;-60
2021/05/17 11:46:53;;;;;;;0.70;0.30;;;23.60;46.50;;;20.89;100.00;99118.19;5059724;28;20369;-60
2021/05/17 11:49:22;;;;;;;1.02;0.32;;;23.80;45.60;;;21.03;100.00;99130.28;5063098;28;20212;-57
2021/05/17 11:51:50;;;;;;;1.38;0.57;;;23.90;45.50;;;20.70;100.00;99125.81;5062288;28;20704;-60
2021/05/17 11:54:17;;;;;;;1.45;0.65;;;23.90;44.50;;;21.66;100.00;99120.63;5061452;28;20554;-60
2021/05/17 11:56:45;;;;;;;1.65;0.47;;;23.90;45.00;;;21.74;91.73;99125.63;5063065;28;20843;-59
2021/05/17 11:59:15;;;;;;;2.45;0.65;;;24.30;44.20;;;21.55;85.29;99121.63;5063581;28;20420;-60
2021/05/17 12:01:45;;;;;;;0.88;0.45;;;24.70;42.10;;;21.88;98.92;99123.31;5066702;28;20433;-59
2021/05/17 12:04:19;;;;;;;1.95;0.52;;;25.00;41.70;;;21.51;100.00;99124.84;5061639;28;21010;-60
2021/05/17 12:06:49;;;;;;;1.15;0.50;;;25.20;42.10;;;22.33;100.00;99125.56;5054230;28;20328;-60
2021/05/17 12:09:34;;;;;;;0.70;0.35;;;25.50;43.20;;;21.07;100.00;99117.84;5059281;28;20264;-60
2021/05/17 12:12:04;;;;;;;0.68;0.45;;;25.70;40.90;;;21.68;100.00;99113.88;5060127;28;20232;-59
2021/05/17 12:14:31;;;;;;;0.98;0.77;;;25.80;40.80;;;21.25;97.31;99109.38;5055014;28;20592;-60
2021/05/17 12:17:12;;;;;;;2.17;0.65;;;25.80;39.30;;;21.85;96.23;99120.00;5044277;28;20260;-60
2021/05/17 12:19:42;;;;;;;2.08;0.60;;;25.70;39.60;;;21.33;95.46;99108.91;5044500;28;20560;-58
2021/05/17 12:22:14;;;;;;;0.93;0.40;;;25.50;38.60;;;21.84;100.00;99114.81;5055195;28;20228;-58
2021/05/17 12:24:40;;;;;;;1.33;0.60;;;25.40;39.40;;;21.65;89.96;99113.56;5057382;28;20474;-60
2021/05/17 12:27:09;;;;;;;1.73;0.65;;;25.30;40.10;;;22.03;94.38;99121.53;5042660;28;20235;-60
2021/05/17 12:29:53;;;;;;;0.88;0.45;;;25.30;40.10;;;22.20;86.60;99119.50;5053295;28;20277;-60
2021/05/17 12:32:25;;;;;;;0.90;0.50;;;25.60;40.30;;;21.12;93.87;99113.28;5040340;28;20586;-59
2021/05/17 12:34:57;;;;;;;0.73;0.40;;;25.80;38.60;;;21.00;100.00;99120.75;5044268;28;20276;-60
2021/05/17 12:37:26;;;;;;;1.35;0.35;;;25.60;39.00;;;21.20;100.00;99117.47;5049516;28;20219;-60
2021/05/17 12:40:22;;;;;;;3.22;0.70;;;25.40;39.70;;;20.94;100.00;99118.22;5045871;28;20297;-59
2021/05/17 12:43:08;;;;;;;0.98;0.57;;;25.00;39.90;;;21.08;100.00;99114.03;5041269;28;20750;-60
2021/05/17 12:45:37;;;;;;;2.35;0.60;;;24.90;40.20;;;21.13;100.00;99114.09;5041609;28;20515;-60
2021/05/17 12:48:18;;;;;;;1.90;0.82;;;25.00;39.90;;;20.94;96.13;99110.88;5045631;28;20295;-60
2021/05/17 12:50:48;;;;;;;1.30;0.68;;;24.90;39.50;;;20.92;99.40;99114.94;5044800;28;20527;-60
2021/05/17 12:53:18;;;;;;;2.28;0.57;;;24.70;40.40;;;21.34;100.00;99109.72;5046428;28;20629;-60